createdAt,value
2022-08-19T00:02:14.740Z,18.53
2022-08-19T00:04:42.046Z,18.53
2022-08-19T00:07:09.439Z,18.42
2022-08-19T00:09:36.889Z,18.36
2022-08-19T00:12:05.040Z,18.44
2022-08-19T00:14:32.970Z,18.44
2022-08-19T00:17:02.318Z,18.40
2022-08-19T00:19:30.131Z,18.46
2022-08-19T00:21:57.544Z,18.53
2022-08-19T00:24:25.915Z,18.54
2022-08-19T00:26:53.880Z,18.55
2022-08-19T00:29:24.065Z,18.73
2022-08-19T00:31:57.393Z,18.86
2022-08-19T00:34:28.851Z,18.82
2022-08-19T00:36:57.829Z,18.93
2022-08-19T00:39:25.678Z,19.05
2022-08-19T00:41:53.364Z,19.05
2022-08-19T00:44:29.087Z,18.82
2022-08-19T00:46:59.981Z,18.76
2022-08-19T00:49:46.587Z,18.82
2022-08-19T00:52:32.865Z,18.81
2022-08-19T00:55:04.240Z,18.68
2022-08-19T00:57:40.934Z,18.50
2022-08-19T01:00:17.050Z,18.67
2022-08-19T01:02:45.707Z,18.87
2022-08-19T01:05:24.577Z,18.68
2022-08-19T01:07:56.677Z,18.59
2022-08-19T01:10:36.764Z,18.43
2022-08-19T01:13:06.344Z,18.32
2022-08-19T01:15:43.194Z,18.27
2022-08-19T01:18:14.701Z,18.34
2022-08-19T01:20:43.518Z,18.50
2022-08-19T01:23:12.071Z,18.50
2022-08-19T01:25:55.336Z,18.61
2022-08-19T01:28:34.094Z,18.64
2022-08-19T01:31:12.420Z,18.67
2022-08-19T01:33:58.123Z,18.53
2022-08-19T01:36:37.307Z,18.40
2022-08-19T01:39:13.420Z,18.33
2022-08-19T01:41:40.989Z,18.30
2022-08-19T01:44:18.420Z,18.29
2022-08-19T01:46:49.376Z,18.30
2022-08-19T01:49:21.951Z,18.43
2022-08-19T01:51:50.557Z,18.75
2022-08-19T01:54:23.098Z,18.88
2022-08-19T01:57:06.522Z,19.04
2022-08-19T01:59:34.855Z,18.83
2022-08-19T02:02:03.111Z,18.70
2022-08-19T02:04:30.536Z,18.83
2022-08-19T02:06:59.274Z,18.91
2022-08-19T02:09:26.707Z,18.78
2022-08-19T02:11:54.383Z,18.69
2022-08-19T02:14:22.058Z,18.60
2022-08-19T02:16:49.714Z,18.49
2022-08-19T02:19:17.544Z,18.42
2022-08-19T02:21:46.112Z,18.38
2022-08-19T02:24:13.624Z,18.38
2022-08-19T02:26:41.197Z,18.41
2022-08-19T02:29:09.407Z,18.50
2022-08-19T02:31:37.217Z,18.66
2022-08-19T02:34:13.716Z,18.88
2022-08-19T02:36:44.229Z,18.97
2022-08-19T02:39:19.977Z,18.98
2022-08-19T02:41:47.765Z,18.91
2022-08-19T02:44:28.766Z,18.81
2022-08-19T02:47:00.335Z,18.71
2022-08-19T02:49:27.839Z,18.68
2022-08-19T02:52:04.693Z,18.73
2022-08-19T02:54:35.650Z,18.74
2022-08-19T02:57:09.404Z,18.67
2022-08-19T02:59:37.396Z,18.66
2022-08-19T03:02:17.165Z,18.67
2022-08-19T03:04:44.940Z,18.71
2022-08-19T03:07:25.468Z,18.70
2022-08-19T03:09:52.974Z,18.74
2022-08-19T03:12:39.288Z,18.87
2022-08-19T03:15:19.535Z,18.89
2022-08-19T03:17:48.062Z,18.92
2022-08-19T03:20:15.492Z,18.98
2022-08-19T03:22:42.925Z,18.96
2022-08-19T03:25:10.910Z,18.87
2022-08-19T03:27:39.229Z,18.81
2022-08-19T03:30:07.996Z,18.81
2022-08-19T03:32:41.695Z,19.02
2022-08-19T03:35:16.045Z,19.09
2022-08-19T03:37:44.794Z,19.14
2022-08-19T03:40:14.547Z,19.19
2022-08-19T03:42:49.005Z,19.20
2022-08-19T03:45:17.326Z,19.28
2022-08-19T03:47:44.648Z,19.36
2022-08-19T03:50:11.978Z,19.33
2022-08-19T03:52:40.414Z,19.26
2022-08-19T03:55:12.921Z,19.17
2022-08-19T03:57:40.448Z,19.06
2022-08-19T04:00:13.711Z,18.92
2022-08-19T04:02:43.006Z,18.91
2022-08-19T04:05:29.626Z,18.98
2022-08-19T04:07:59.759Z,19.08
2022-08-19T04:10:29.209Z,19.12
2022-08-19T04:12:56.623Z,19.16
2022-08-19T04:15:24.109Z,19.13
2022-08-19T04:17:51.488Z,19.04
2022-08-19T04:20:24.897Z,18.98
2022-08-19T04:22:52.761Z,18.93
2022-08-19T04:25:20.401Z,18.94
2022-08-19T04:27:47.856Z,18.82
2022-08-19T04:30:16.024Z,18.77
2022-08-19T04:32:44.650Z,18.73
2022-08-19T04:35:16.843Z,18.67
2022-08-19T04:37:45.025Z,18.61
2022-08-19T04:40:31.397Z,18.67
2022-08-19T04:42:59.289Z,18.78
2022-08-19T04:45:26.584Z,18.65
2022-08-19T04:48:26.241Z,18.71
2022-08-19T04:50:47.407Z,18.74
2022-08-19T04:53:14.903Z,18.73
2022-08-19T04:55:43.911Z,18.66
2022-08-19T04:58:11.516Z,18.87
2022-08-19T05:00:41.064Z,18.88
2022-08-19T05:03:09.067Z,18.91
2022-08-19T05:05:44.795Z,18.82
2022-08-19T05:08:30.663Z,18.78
2022-08-19T05:10:59.461Z,18.72
2022-08-19T05:13:27.905Z,18.66
2022-08-19T05:16:00.801Z,18.64
2022-08-19T05:18:46.765Z,18.70
2022-08-19T05:21:38.091Z,18.72
2022-08-19T05:24:10.323Z,18.68
2022-08-19T05:26:41.321Z,18.64
2022-08-19T05:29:11.085Z,18.69
2022-08-19T05:31:39.432Z,18.66
2022-08-19T05:34:18.359Z,18.75
2022-08-19T05:36:49.203Z,18.72
2022-08-19T05:39:21.677Z,18.77
2022-08-19T05:41:58.442Z,18.80
2022-08-19T05:44:32.271Z,18.83
2022-08-19T05:47:03.166Z,18.91
2022-08-19T05:49:34.596Z,18.84
2022-08-19T05:52:14.560Z,18.89
2022-08-19T05:54:51.012Z,18.96
2022-08-19T05:57:22.365Z,18.99
2022-08-19T05:59:53.292Z,18.91
2022-08-19T06:02:31.771Z,18.83
2022-08-19T06:04:59.376Z,19.03
2022-08-19T06:07:26.889Z,19.05
2022-08-19T06:10:00.866Z,19.17
2022-08-19T06:12:33.917Z,19.09
2022-08-19T06:15:05.663Z,19.17
2022-08-19T06:17:33.021Z,19.13
2022-08-19T06:20:00.608Z,18.79
2022-08-19T06:22:29.039Z,18.76
2022-08-19T06:24:59.892Z,18.75
2022-08-19T06:27:27.733Z,18.96
2022-08-19T06:29:57.978Z,19.19
2022-08-19T06:32:25.568Z,19.31
2022-08-19T06:34:53.008Z,19.38
2022-08-19T06:37:22.613Z,19.47
2022-08-19T06:39:51.366Z,19.42
2022-08-19T06:42:19.509Z,19.38
2022-08-19T06:44:50.210Z,19.38
2022-08-19T06:47:23.205Z,19.43
2022-08-19T06:50:03.923Z,19.55
2022-08-19T06:52:36.784Z,19.86
2022-08-19T06:55:07.843Z,19.78
2022-08-19T06:57:35.991Z,19.62
2022-08-19T07:00:09.739Z,19.56
2022-08-19T07:02:48.250Z,19.53
2022-08-19T07:05:24.029Z,19.62
2022-08-19T07:07:51.801Z,19.53
2022-08-19T07:10:20.421Z,19.57
2022-08-19T07:12:48.567Z,19.43
2022-08-19T07:15:16.805Z,19.44
2022-08-19T07:17:46.734Z,19.38
2022-08-19T07:20:20.275Z,19.46
2022-08-19T07:22:48.405Z,19.65
2022-08-19T07:25:18.220Z,19.67
2022-08-19T07:27:46.239Z,19.68
2022-08-19T07:30:14.417Z,19.75
2022-08-19T07:32:43.347Z,19.77
2022-08-19T07:35:11.472Z,19.69
2022-08-19T07:37:40.128Z,19.66
2022-08-19T07:40:09.087Z,19.76
2022-08-19T07:42:37.867Z,20.04
2022-08-19T07:45:08.966Z,20.19
2022-08-19T07:47:48.872Z,20.25
2022-08-19T07:50:20.920Z,20.23
2022-08-19T07:52:50.602Z,20.18
2022-08-19T07:55:43.257Z,19.69
2022-08-19T07:58:17.261Z,19.62
2022-08-19T08:00:47.975Z,19.71
2022-08-19T08:03:19.852Z,19.75
2022-08-19T08:06:06.840Z,19.80
2022-08-19T08:08:52.898Z,19.95
2022-08-19T08:11:22.112Z,20.18
2022-08-19T08:14:01.021Z,20.30
2022-08-19T08:16:39.613Z,20.44
2022-08-19T08:19:20.541Z,20.55
2022-08-19T08:22:02.602Z,20.72
2022-08-19T08:25:03.047Z,20.99
2022-08-19T08:27:42.762Z,20.92
2022-08-19T08:30:26.130Z,21.08
2022-08-19T08:33:12.466Z,21.11
2022-08-19T08:36:00.533Z,21.09
2022-08-19T08:38:29.846Z,21.09
2022-08-19T08:41:50.137Z,21.29
2022-08-19T08:44:25.901Z,21.23
2022-08-19T08:47:07.821Z,21.29
2022-08-19T08:50:16.198Z,21.19
2022-08-19T08:52:54.010Z,21.22
2022-08-19T08:55:36.477Z,20.65
2022-08-19T08:58:32.660Z,21.05
2022-08-19T09:01:00.040Z,21.18
2022-08-19T09:03:31.408Z,21.30
2022-08-19T09:06:38.191Z,21.22
2022-08-19T09:09:36.797Z,21.40
2022-08-19T09:12:52.137Z,21.30
2022-08-19T09:15:33.460Z,21.33
2022-08-19T09:18:07.175Z,21.57
2022-08-19T09:20:37.333Z,21.74
2022-08-19T09:23:11.735Z,21.79
2022-08-19T09:25:41.056Z,21.89
2022-08-19T09:28:15.521Z,22.04
2022-08-19T09:30:53.149Z,22.12
2022-08-19T09:33:30.152Z,21.94
2022-08-19T09:36:31.114Z,22.26
2022-08-19T09:39:16.248Z,22.29
2022-08-19T09:41:50.750Z,22.40
2022-08-19T09:44:21.285Z,21.80
2022-08-19T09:46:49.917Z,21.84
2022-08-19T09:49:22.582Z,21.77
2022-08-19T09:51:55.332Z,22.17
2022-08-19T09:54:32.669Z,22.36
2022-08-19T09:57:22.834Z,22.04
2022-08-19T10:00:00.443Z,21.75
2022-08-19T10:02:36.173Z,22.38
2022-08-19T10:05:26.826Z,22.37
2022-08-19T10:07:58.341Z,22.48
2022-08-19T10:10:25.907Z,22.31
2022-08-19T10:12:55.562Z,22.13
2022-08-19T10:15:29.050Z,22.32
2022-08-19T10:17:58.862Z,22.64
2022-08-19T10:20:39.661Z,23.22
2022-08-19T10:23:07.673Z,23.44
2022-08-19T10:25:35.990Z,23.22
2022-08-19T10:28:10.660Z,23.77
2022-08-19T10:30:41.614Z,24.14
2022-08-19T10:33:11.179Z,24.35
2022-08-19T10:35:42.836Z,24.36
2022-08-19T10:38:33.037Z,23.79
2022-08-19T10:41:16.325Z,24.02
2022-08-19T10:43:46.003Z,24.01
2022-08-19T10:46:16.922Z,24.07
2022-08-19T10:48:45.431Z,23.98
2022-08-19T10:51:32.047Z,24.00
2022-08-19T10:54:01.039Z,24.14
2022-08-19T10:56:48.102Z,24.49
2022-08-19T10:59:16.948Z,24.51
2022-08-19T11:01:47.446Z,24.32
2022-08-19T11:04:23.070Z,24.00
2022-08-19T11:06:57.535Z,23.98
2022-08-19T11:09:34.331Z,24.56
2022-08-19T11:12:03.009Z,24.94
2022-08-19T11:14:34.739Z,25.40
2022-08-19T11:17:04.649Z,25.37
2022-08-19T11:19:32.984Z,25.75
2022-08-19T11:22:02.402Z,25.13
2022-08-19T11:24:32.612Z,25.43
2022-08-19T11:27:10.104Z,25.64
2022-08-19T11:29:40.165Z,25.29
2022-08-19T11:32:11.323Z,25.10
2022-08-19T11:34:38.819Z,25.34
2022-08-19T11:37:07.368Z,25.30
2022-08-19T11:39:37.802Z,24.98
2022-08-19T11:42:27.733Z,24.83
2022-08-19T11:44:55.756Z,25.23
2022-08-19T11:47:23.142Z,25.25
2022-08-19T11:49:50.621Z,25.16
2022-08-19T11:52:18.013Z,25.64
2022-08-19T11:54:45.329Z,25.89
2022-08-19T11:57:12.789Z,25.89
2022-08-19T11:59:40.112Z,24.72
2022-08-19T12:02:07.338Z,24.90
2022-08-19T12:04:35.532Z,25.53
2022-08-19T12:07:03.090Z,25.63
2022-08-19T12:09:31.067Z,25.99
2022-08-19T12:11:58.602Z,25.42
2022-08-19T12:14:25.958Z,25.42
2022-08-19T12:16:53.326Z,25.75
2022-08-19T12:19:21.841Z,25.89
2022-08-19T12:21:51.662Z,26.16
2022-08-19T12:24:24.243Z,25.50
2022-08-19T12:26:52.539Z,25.31
2022-08-19T12:29:23.864Z,25.65
2022-08-19T12:31:52.373Z,25.64
2022-08-19T12:34:21.123Z,25.51
2022-08-19T12:36:50.325Z,25.71
2022-08-19T12:39:18.232Z,25.75
2022-08-19T12:41:54.795Z,25.05
2022-08-19T12:44:29.127Z,25.41
2022-08-19T12:47:01.299Z,25.53
2022-08-19T12:49:51.996Z,25.41
2022-08-19T12:52:23.110Z,25.82
2022-08-19T12:54:53.859Z,26.17
2022-08-19T12:57:33.537Z,25.75
2022-08-19T13:00:16.755Z,26.54
2022-08-19T13:02:48.146Z,27.19
2022-08-19T13:05:23.782Z,27.36
2022-08-19T13:07:58.066Z,28.12
2022-08-19T13:10:35.880Z,28.56
2022-08-19T13:13:10.533Z,28.18
2022-08-19T13:15:43.712Z,27.35
2022-08-19T13:18:13.510Z,27.08
2022-08-19T13:20:42.602Z,27.49
2022-08-19T13:23:19.961Z,26.82
2022-08-19T13:26:02.997Z,28.22
2022-08-19T13:28:50.494Z,29.85
2022-08-19T13:31:39.308Z,29.97
2022-08-19T13:34:07.400Z,32.16
2022-08-19T13:36:36.934Z,30.71
2022-08-19T13:39:08.497Z,29.23
2022-08-19T13:41:37.555Z,29.94
2022-08-19T13:44:07.648Z,30.66
2022-08-19T13:46:36.062Z,29.42
2022-08-19T13:49:03.382Z,29.12
2022-08-19T13:51:30.822Z,31.33
2022-08-19T13:53:58.121Z,29.72
2022-08-19T13:56:26.607Z,32.20
2022-08-19T13:58:54.548Z,31.24
2022-08-19T14:01:24.534Z,31.25
2022-08-19T14:03:52.836Z,32.92
2022-08-19T14:06:22.209Z,35.13
2022-08-19T14:08:50.111Z,31.45
2022-08-19T14:11:17.856Z,31.10
2022-08-19T14:13:45.895Z,31.63
2022-08-19T14:16:15.641Z,33.56
2022-08-19T14:18:44.340Z,34.06
2022-08-19T14:21:21.174Z,33.57
2022-08-19T14:23:49.039Z,31.16
2022-08-19T14:26:19.777Z,32.19
2022-08-19T14:28:47.889Z,32.33
2022-08-19T14:31:19.886Z,31.26
2022-08-19T14:33:51.422Z,31.16
2022-08-19T14:36:21.233Z,30.95
2022-08-19T14:38:49.789Z,31.76
2022-08-19T14:41:22.679Z,30.82
2022-08-19T14:43:53.785Z,32.10
2022-08-19T14:46:28.089Z,30.82
2022-08-19T14:48:57.740Z,31.19
2022-08-19T14:51:28.110Z,30.85
2022-08-19T14:53:56.198Z,31.75
2022-08-19T14:56:28.604Z,30.29
2022-08-19T14:58:57.984Z,31.10
2022-08-19T15:01:26.245Z,29.27
2022-08-19T15:03:55.587Z,28.99
2022-08-19T15:06:25.685Z,28.31
2022-08-19T15:08:55.182Z,28.20
2022-08-19T15:11:27.406Z,28.95
2022-08-19T15:13:58.345Z,29.62
2022-08-19T15:16:27.027Z,28.94
2022-08-19T15:18:59.854Z,28.91
2022-08-19T15:21:29.158Z,28.45
2022-08-19T15:23:59.647Z,28.75
2022-08-19T15:26:31.895Z,28.68
2022-08-19T15:29:01.922Z,28.72
2022-08-19T15:31:29.909Z,28.84
2022-08-19T15:33:58.808Z,28.67
2022-08-19T15:36:28.292Z,28.41
2022-08-19T15:38:58.858Z,28.15
2022-08-19T15:41:30.879Z,28.00
2022-08-19T15:44:09.689Z,27.61
2022-08-19T15:46:41.293Z,27.67
2022-08-19T15:49:10.673Z,27.80
2022-08-19T15:51:40.171Z,27.88
2022-08-19T15:54:12.139Z,28.54
2022-08-19T15:56:59.027Z,28.83
2022-08-19T15:59:47.081Z,29.94
2022-08-19T16:02:37.449Z,30.83
2022-08-19T16:05:29.497Z,31.97
2022-08-19T16:07:57.648Z,32.56
2022-08-19T16:10:27.224Z,34.24
2022-08-19T16:12:57.662Z,35.26
2022-08-19T16:15:30.525Z,36.10
2022-08-19T16:17:58.871Z,36.46
2022-08-19T16:20:28.641Z,37.43
2022-08-19T16:22:59.047Z,37.11
2022-08-19T16:25:29.226Z,34.11
2022-08-19T16:28:07.272Z,35.39
2022-08-19T16:30:39.360Z,36.08
2022-08-19T16:33:08.354Z,37.57
2022-08-19T16:35:37.006Z,38.10
2022-08-19T16:38:05.894Z,36.74
2022-08-19T16:40:35.247Z,38.94
2022-08-19T16:43:02.962Z,39.39
2022-08-19T16:45:30.973Z,39.90
2022-08-19T16:47:58.615Z,39.93
2022-08-19T16:50:46.211Z,40.31
2022-08-19T16:53:16.349Z,40.53
2022-08-19T16:55:45.050Z,40.42
2022-08-19T16:58:12.334Z,40.61
2022-08-19T17:00:40.025Z,40.43
2022-08-19T17:03:15.131Z,38.33
2022-08-19T17:05:55.373Z,35.33
2022-08-19T17:08:26.437Z,32.52
2022-08-19T17:11:17.110Z,31.29
2022-08-19T17:13:44.416Z,30.30
2022-08-19T17:16:17.109Z,29.77
2022-08-19T17:18:44.525Z,29.51
2022-08-19T17:21:13.158Z,29.22
2022-08-19T17:23:43.126Z,29.79
2022-08-19T17:26:17.949Z,29.93
2022-08-19T17:28:50.890Z,29.03
2022-08-19T17:31:23.080Z,28.43
2022-08-19T17:33:51.492Z,28.07
2022-08-19T17:36:26.419Z,27.79
2022-08-19T17:38:56.178Z,27.60
2022-08-19T17:41:26.793Z,27.22
2022-08-19T17:43:54.835Z,27.04
2022-08-19T17:46:22.176Z,26.89
2022-08-19T17:48:55.058Z,26.79
2022-08-19T17:51:43.142Z,26.72
2022-08-19T17:54:19.734Z,26.73
2022-08-19T17:56:47.868Z,26.64
2022-08-19T17:59:15.990Z,26.44
2022-08-19T18:01:53.839Z,26.33
2022-08-19T18:04:25.857Z,26.17
2022-08-19T18:06:55.569Z,25.92
2022-08-19T18:09:41.549Z,25.75
2022-08-19T18:12:13.833Z,25.56
2022-08-19T18:14:41.993Z,25.34
2022-08-19T18:17:17.167Z,25.20
2022-08-19T18:19:47.585Z,25.08
2022-08-19T18:22:31.285Z,24.97
2022-08-19T18:24:59.139Z,25.00
2022-08-19T18:27:27.670Z,24.98
2022-08-19T18:29:59.079Z,24.93
2022-08-19T18:32:38.226Z,24.76
2022-08-19T18:35:29.600Z,24.64
2022-08-19T18:38:01.140Z,24.47
2022-08-19T18:40:48.212Z,24.34
2022-08-19T18:43:15.473Z,24.21
2022-08-19T18:46:02.458Z,24.03
2022-08-19T18:48:49.116Z,23.93
2022-08-19T18:51:18.705Z,23.85
2022-08-19T18:53:50.519Z,23.73
2022-08-19T18:56:20.137Z,23.61
2022-08-19T18:58:47.565Z,23.50
2022-08-19T19:01:29.424Z,23.43
2022-08-19T19:04:04.358Z,23.42
2022-08-19T19:06:38.060Z,23.41
2022-08-19T19:09:11.215Z,23.41
2022-08-19T19:11:45.522Z,23.40
2022-08-19T19:14:48.094Z,23.36
2022-08-19T19:17:16.101Z,23.30
2022-08-19T19:19:44.451Z,23.24
2022-08-19T19:22:20.150Z,23.14
2022-08-19T19:24:47.798Z,23.03
2022-08-19T19:27:18.522Z,22.97
2022-08-19T19:29:51.545Z,22.96
2022-08-19T19:32:29.408Z,22.94
2022-08-19T19:34:57.377Z,22.88
2022-08-19T19:37:24.746Z,22.93
2022-08-19T19:39:52.464Z,23.02
2022-08-19T19:42:23.657Z,22.96
2022-08-19T19:44:54.739Z,22.91
2022-08-19T19:47:24.321Z,22.80
2022-08-19T19:50:13.273Z,22.61
2022-08-19T19:52:41.129Z,22.62
2022-08-19T19:55:09.981Z,22.57
2022-08-19T19:57:39.249Z,22.50
2022-08-19T20:00:08.989Z,22.48
2022-08-19T20:02:36.298Z,22.47
2022-08-19T20:05:04.505Z,22.46
2022-08-19T20:07:50.557Z,22.40
2022-08-19T20:10:17.998Z,22.38
2022-08-19T20:12:45.314Z,22.35
2022-08-19T20:15:12.968Z,22.33
2022-08-19T20:17:42.503Z,22.30
2022-08-19T20:20:17.203Z,22.23
2022-08-19T20:22:47.315Z,22.27
2022-08-19T20:25:22.262Z,22.22
2022-08-19T20:27:50.541Z,22.25
2022-08-19T20:30:21.650Z,22.24
2022-08-19T20:32:51.033Z,22.28
2022-08-19T20:35:21.740Z,22.30
2022-08-19T20:37:52.842Z,22.27
2022-08-19T20:40:23.374Z,22.22
2022-08-19T20:42:50.771Z,22.21
2022-08-19T20:45:32.335Z,22.19
2022-08-19T20:48:03.333Z,22.17
2022-08-19T20:50:34.847Z,22.21
2022-08-19T20:53:15.210Z,22.23
2022-08-19T20:55:51.749Z,22.20
2022-08-19T20:58:22.992Z,22.22
2022-08-19T21:00:54.387Z,22.25
2022-08-19T21:03:27.129Z,22.24
2022-08-19T21:05:56.566Z,22.28
2022-08-19T21:08:25.417Z,22.27
2022-08-19T21:10:55.569Z,22.29
2022-08-19T21:13:24.617Z,22.25
2022-08-19T21:15:52.165Z,22.23
2022-08-19T21:18:22.836Z,22.20
2022-08-19T21:20:50.870Z,22.12
2022-08-19T21:23:26.641Z,22.12
2022-08-19T21:25:57.400Z,22.11
2022-08-19T21:28:35.082Z,22.14
2022-08-19T21:31:06.947Z,22.05
2022-08-19T21:33:34.665Z,22.00
2022-08-19T21:36:03.825Z,21.91
2022-08-19T21:38:32.000Z,21.91
2022-08-19T21:41:04.188Z,21.96
2022-08-19T21:43:37.427Z,21.93
2022-08-19T21:46:06.180Z,21.95
2022-08-19T21:48:33.510Z,21.91
2022-08-19T21:51:00.904Z,21.86
2022-08-19T21:53:34.233Z,21.83
2022-08-19T21:56:04.015Z,21.79
2022-08-19T21:58:31.449Z,21.81
2022-08-19T22:01:01.413Z,21.70
2022-08-19T22:03:29.457Z,21.61
2022-08-19T22:05:58.522Z,21.56
2022-08-19T22:08:27.220Z,21.56
2022-08-19T22:10:55.093Z,21.57
2022-08-19T22:13:22.395Z,21.54
2022-08-19T22:15:51.861Z,21.55
2022-08-19T22:18:19.250Z,21.49
2022-08-19T22:20:47.885Z,21.42
2022-08-19T22:23:15.215Z,21.42
2022-08-19T22:25:46.621Z,21.35
2022-08-19T22:28:19.138Z,21.29
2022-08-19T22:30:56.031Z,21.25
2022-08-19T22:33:25.644Z,21.21
2022-08-19T22:35:53.897Z,21.20
2022-08-19T22:38:21.128Z,21.17
2022-08-19T22:40:51.281Z,21.21
2022-08-19T22:43:32.392Z,21.25
2022-08-19T22:46:00.981Z,21.23
2022-08-19T22:48:31.198Z,21.17
2022-08-19T22:51:18.717Z,21.13
2022-08-19T22:53:48.346Z,21.04
2022-08-19T22:56:19.074Z,20.99
2022-08-19T22:58:49.999Z,20.95
2022-08-19T23:01:27.497Z,20.92
2022-08-19T23:04:00.121Z,20.89
2022-08-19T23:06:37.194Z,20.84
2022-08-19T23:09:08.784Z,20.83
2022-08-19T23:11:41.995Z,20.85
2022-08-19T23:14:11.285Z,20.80
2022-08-19T23:16:39.551Z,20.78
2022-08-19T23:19:10.384Z,20.80
2022-08-19T23:21:40.921Z,20.78
2022-08-19T23:24:09.151Z,20.71
2022-08-19T23:26:36.432Z,20.68
2022-08-19T23:29:24.404Z,20.69
2022-08-19T23:31:51.749Z,20.62
2022-08-19T23:34:19.032Z,20.57
2022-08-19T23:36:46.355Z,20.48
2022-08-19T23:39:14.279Z,20.47
2022-08-19T23:41:41.632Z,20.43
2022-08-19T23:44:14.539Z,20.48
2022-08-19T23:46:54.899Z,20.55
2022-08-19T23:49:25.393Z,20.58
2022-08-19T23:51:55.468Z,20.54
2022-08-19T23:54:34.428Z,20.49
2022-08-19T23:57:14.087Z,20.35
2022-08-19T23:59:45.595Z,20.24
